sensor_id;sensor_type;location;lat;lon;timestamp;P1;durP1;ratioP1;P2;durP2;ratioP2
58338;SDS011;48278;52.704;6.536;2022-09-12T00:01:03;44.15;;;21.27;;
58338;SDS011;48278;52.704;6.536;2022-09-12T00:03:29;44.97;;;21.60;;
58338;SDS011;48278;52.704;6.536;2022-09-12T00:05:55;40.20;;;20.90;;
58338;SDS011;48278;52.704;6.536;2022-09-12T00:08:21;43.60;;;21.60;;
58338;SDS011;48278;52.704;6.536;2022-09-12T00:10:46;47.05;;;22.95;;
58338;SDS011;48278;52.704;6.536;2022-09-12T00:13:12;43.58;;;20.50;;
58338;SDS011;48278;52.704;6.536;2022-09-12T00:15:38;44.30;;;21.70;;
58338;SDS011;48278;52.704;6.536;2022-09-12T00:18:06;44.92;;;21.30;;
58338;SDS011;48278;52.704;6.536;2022-09-12T00:20:33;47.80;;;22.33;;
58338;SDS011;48278;52.704;6.536;2022-09-12T00:22:58;52.90;;;24.20;;
58338;SDS011;48278;52.704;6.536;2022-09-12T00:25:24;52.20;;;23.17;;
58338;SDS011;48278;52.704;6.536;2022-09-12T00:27:50;45.28;;;22.42;;
58338;SDS011;48278;52.704;6.536;2022-09-12T00:30:16;48.28;;;22.25;;
58338;SDS011;48278;52.704;6.536;2022-09-12T00:32:42;46.25;;;21.55;;
58338;SDS011;48278;52.704;6.536;2022-09-12T00:35:08;45.45;;;21.10;;
58338;SDS011;48278;52.704;6.536;2022-09-12T00:37:34;51.15;;;23.38;;
58338;SDS011;48278;52.704;6.536;2022-09-12T00:40:00;53.60;;;24.13;;
58338;SDS011;48278;52.704;6.536;2022-09-12T00:42:26;51.40;;;23.53;;
58338;SDS011;48278;52.704;6.536;2022-09-12T00:44:51;51.00;;;24.02;;
58338;SDS011;48278;52.704;6.536;2022-09-12T00:47:22;60.53;;;25.67;;
58338;SDS011;48278;52.704;6.536;2022-09-12T00:52:38;58.03;;;25.67;;
58338;SDS011;48278;52.704;6.536;2022-09-12T00:55:09;49.55;;;22.42;;
58338;SDS011;48278;52.704;6.536;2022-09-12T00:57:46;51.17;;;22.23;;
58338;SDS011;48278;52.704;6.536;2022-09-12T01:00:19;55.25;;;23.25;;
58338;SDS011;48278;52.704;6.536;2022-09-12T01:02:48;53.85;;;25.05;;
58338;SDS011;48278;52.704;6.536;2022-09-12T01:05:17;52.97;;;25.17;;
58338;SDS011;48278;52.704;6.536;2022-09-12T01:07:43;58.00;;;25.85;;
58338;SDS011;48278;52.704;6.536;2022-09-12T01:10:12;64.07;;;26.25;;
58338;SDS011;48278;52.704;6.536;2022-09-12T01:12:39;75.72;;;29.08;;
58338;SDS011;48278;52.704;6.536;2022-09-12T01:15:06;86.45;;;31.42;;
58338;SDS011;48278;52.704;6.536;2022-09-12T01:17:36;80.75;;;32.67;;
58338;SDS011;48278;52.704;6.536;2022-09-12T01:23:09;79.00;;;32.60;;
58338;SDS011;48278;52.704;6.536;2022-09-12T01:31:51;81.50;;;32.45;;
58338;SDS011;48278;52.704;6.536;2022-09-12T01:34:30;78.63;;;33.08;;
58338;SDS011;48278;52.704;6.536;2022-09-12T01:39:53;85.22;;;33.25;;
58338;SDS011;48278;52.704;6.536;2022-09-12T01:42:34;82.88;;;32.75;;
58338;SDS011;48278;52.704;6.536;2022-09-12T01:45:42;85.00;;;32.92;;
58338;SDS011;48278;52.704;6.536;2022-09-12T01:48:21;87.28;;;32.10;;
58338;SDS011;48278;52.704;6.536;2022-09-12T01:50:53;88.05;;;33.83;;
58338;SDS011;48278;52.704;6.536;2022-09-12T01:53:36;88.97;;;33.30;;
58338;SDS011;48278;52.704;6.536;2022-09-12T01:56:10;82.80;;;33.58;;
58338;SDS011;48278;52.704;6.536;2022-09-12T02:01:16;89.22;;;33.83;;
58338;SDS011;48278;52.704;6.536;2022-09-12T02:03:51;87.78;;;33.47;;
58338;SDS011;48278;52.704;6.536;2022-09-12T02:06:25;87.72;;;34.05;;
58338;SDS011;48278;52.704;6.536;2022-09-12T02:09:26;88.68;;;32.92;;
58338;SDS011;48278;52.704;6.536;2022-09-12T02:11:59;92.22;;;34.08;;
58338;SDS011;48278;52.704;6.536;2022-09-12T02:14:26;90.18;;;34.45;;
58338;SDS011;48278;52.704;6.536;2022-09-12T02:17:11;90.82;;;33.42;;
58338;SDS011;48278;52.704;6.536;2022-09-12T02:19:49;94.80;;;35.17;;
58338;SDS011;48278;52.704;6.536;2022-09-12T02:22:19;92.90;;;35.22;;
58338;SDS011;48278;52.704;6.536;2022-09-12T02:24:49;101.63;;;36.00;;
58338;SDS011;48278;52.704;6.536;2022-09-12T02:27:40;96.78;;;35.45;;
58338;SDS011;48278;52.704;6.536;2022-09-12T02:30:10;96.78;;;36.72;;
58338;SDS011;48278;52.704;6.536;2022-09-12T02:40:56;103.53;;;35.30;;
58338;SDS011;48278;52.704;6.536;2022-09-12T02:43:22;97.85;;;35.47;;
58338;SDS011;48278;52.704;6.536;2022-09-12T02:45:49;105.57;;;36.20;;
58338;SDS011;48278;52.704;6.536;2022-09-12T02:48:25;96.35;;;35.50;;
58338;SDS011;48278;52.704;6.536;2022-09-12T02:50:54;100.93;;;36.03;;
58338;SDS011;48278;52.704;6.536;2022-09-12T02:53:21;109.93;;;36.60;;
58338;SDS011;48278;52.704;6.536;2022-09-12T02:55:47;106.22;;;36.78;;
58338;SDS011;48278;52.704;6.536;2022-09-12T02:58:15;108.40;;;37.50;;
58338;SDS011;48278;52.704;6.536;2022-09-12T03:00:54;107.40;;;36.75;;
58338;SDS011;48278;52.704;6.536;2022-09-12T03:06:15;109.50;;;37.40;;
58338;SDS011;48278;52.704;6.536;2022-09-12T03:11:59;111.55;;;36.53;;
58338;SDS011;48278;52.704;6.536;2022-09-12T03:17:32;108.43;;;35.88;;
58338;SDS011;48278;52.704;6.536;2022-09-12T03:20:14;117.22;;;37.03;;
58338;SDS011;48278;52.704;6.536;2022-09-12T03:22:45;117.13;;;37.88;;
58338;SDS011;48278;52.704;6.536;2022-09-12T03:25:27;113.75;;;36.03;;
58338;SDS011;48278;52.704;6.536;2022-09-12T03:28:08;119.32;;;37.80;;
58338;SDS011;48278;52.704;6.536;2022-09-12T03:30:43;121.60;;;37.25;;
58338;SDS011;48278;52.704;6.536;2022-09-12T03:33:17;124.40;;;37.60;;
58338;SDS011;48278;52.704;6.536;2022-09-12T03:35:47;124.90;;;36.45;;
58338;SDS011;48278;52.704;6.536;2022-09-12T03:38:14;110.25;;;36.80;;
58338;SDS011;48278;52.704;6.536;2022-09-12T03:40:40;117.90;;;38.17;;
58338;SDS011;48278;52.704;6.536;2022-09-12T03:43:07;117.10;;;36.67;;
58338;SDS011;48278;52.704;6.536;2022-09-12T03:45:33;116.30;;;36.75;;
58338;SDS011;48278;52.704;6.536;2022-09-12T03:48:00;116.75;;;36.65;;
58338;SDS011;48278;52.704;6.536;2022-09-12T03:50:26;117.27;;;38.43;;
58338;SDS011;48278;52.704;6.536;2022-09-12T03:52:52;122.47;;;40.05;;
58338;SDS011;48278;52.704;6.536;2022-09-12T03:55:18;114.20;;;38.10;;
58338;SDS011;48278;52.704;6.536;2022-09-12T03:57:44;121.27;;;38.40;;
58338;SDS011;48278;52.704;6.536;2022-09-12T04:00:10;125.20;;;38.47;;
58338;SDS011;48278;52.704;6.536;2022-09-12T04:02:36;120.78;;;38.63;;
58338;SDS011;48278;52.704;6.536;2022-09-12T04:05:02;126.07;;;38.97;;
58338;SDS011;48278;52.704;6.536;2022-09-12T04:07:28;115.67;;;36.97;;
58338;SDS011;48278;52.704;6.536;2022-09-12T04:09:54;123.93;;;40.10;;
58338;SDS011;48278;52.704;6.536;2022-09-12T04:12:20;125.05;;;37.33;;
58338;SDS011;48278;52.704;6.536;2022-09-12T04:14:46;122.90;;;40.97;;
58338;SDS011;48278;52.704;6.536;2022-09-12T04:17:12;130.85;;;42.70;;
58338;SDS011;48278;52.704;6.536;2022-09-12T04:19:38;132.37;;;40.63;;
58338;SDS011;48278;52.704;6.536;2022-09-12T04:22:04;131.75;;;41.13;;
58338;SDS011;48278;52.704;6.536;2022-09-12T04:24:30;135.10;;;41.33;;
58338;SDS011;48278;52.704;6.536;2022-09-12T04:26:56;128.55;;;41.05;;
58338;SDS011;48278;52.704;6.536;2022-09-12T04:29:21;131.40;;;40.92;;
58338;SDS011;48278;52.704;6.536;2022-09-12T04:31:47;140.48;;;43.50;;
58338;SDS011;48278;52.704;6.536;2022-09-12T04:34:13;140.93;;;42.90;;
58338;SDS011;48278;52.704;6.536;2022-09-12T04:36:39;147.93;;;44.03;;
58338;SDS011;48278;52.704;6.536;2022-09-12T04:39:06;147.23;;;45.13;;
58338;SDS011;48278;52.704;6.536;2022-09-12T04:41:36;137.60;;;42.80;;
58338;SDS011;48278;52.704;6.536;2022-09-12T04:44:04;143.85;;;43.42;;
58338;SDS011;48278;52.704;6.536;2022-09-12T04:46:33;132.77;;;41.88;;
58338;SDS011;48278;52.704;6.536;2022-09-12T04:49:00;140.95;;;42.45;;
58338;SDS011;48278;52.704;6.536;2022-09-12T04:51:27;142.33;;;42.10;;
58338;SDS011;48278;52.704;6.536;2022-09-12T04:53:57;137.18;;;42.05;;
58338;SDS011;48278;52.704;6.536;2022-09-12T04:56:24;150.02;;;42.47;;
58338;SDS011;48278;52.704;6.536;2022-09-12T05:01:18;142.07;;;41.30;;
58338;SDS011;48278;52.704;6.536;2022-09-12T05:03:46;133.48;;;40.92;;
58338;SDS011;48278;52.704;6.536;2022-09-12T05:06:15;140.20;;;40.88;;
58338;SDS011;48278;52.704;6.536;2022-09-12T05:08:43;140.70;;;40.30;;
58338;SDS011;48278;52.704;6.536;2022-09-12T05:11:11;140.40;;;42.53;;
58338;SDS011;48278;52.704;6.536;2022-09-12T05:13:44;140.43;;;42.83;;
58338;SDS011;48278;52.704;6.536;2022-09-12T05:16:10;141.48;;;43.60;;
58338;SDS011;48278;52.704;6.536;2022-09-12T05:18:39;141.18;;;42.80;;
58338;SDS011;48278;52.704;6.536;2022-09-12T05:21:06;143.93;;;41.93;;
58338;SDS011;48278;52.704;6.536;2022-09-12T05:23:33;130.27;;;40.60;;
58338;SDS011;48278;52.704;6.536;2022-09-12T05:26:00;130.95;;;40.15;;
58338;SDS011;48278;52.704;6.536;2022-09-12T05:28:28;136.00;;;42.00;;
58338;SDS011;48278;52.704;6.536;2022-09-12T05:31:10;134.90;;;41.40;;
58338;SDS011;48278;52.704;6.536;2022-09-12T05:33:47;116.97;;;38.30;;
58338;SDS011;48278;52.704;6.536;2022-09-12T05:36:18;128.98;;;41.17;;
58338;SDS011;48278;52.704;6.536;2022-09-12T05:38:46;128.65;;;41.72;;
58338;SDS011;48278;52.704;6.536;2022-09-12T05:41:16;133.00;;;41.35;;
58338;SDS011;48278;52.704;6.536;2022-09-12T05:43:57;125.38;;;40.38;;
58338;SDS011;48278;52.704;6.536;2022-09-12T05:46:28;127.85;;;41.97;;
58338;SDS011;48278;52.704;6.536;2022-09-12T05:49:03;123.82;;;38.75;;
58338;SDS011;48278;52.704;6.536;2022-09-12T05:51:31;123.50;;;40.30;;
58338;SDS011;48278;52.704;6.536;2022-09-12T05:53:59;126.78;;;40.80;;
58338;SDS011;48278;52.704;6.536;2022-09-12T05:56:31;124.63;;;41.50;;
58338;SDS011;48278;52.704;6.536;2022-09-12T06:01:31;123.45;;;40.50;;
58338;SDS011;48278;52.704;6.536;2022-09-12T06:06:25;125.25;;;38.17;;
58338;SDS011;48278;52.704;6.536;2022-09-12T06:08:53;112.43;;;37.75;;
58338;SDS011;48278;52.704;6.536;2022-09-12T06:11:21;123.28;;;39.03;;
58338;SDS011;48278;52.704;6.536;2022-09-12T06:13:50;125.53;;;38.72;;
58338;SDS011;48278;52.704;6.536;2022-09-12T06:16:18;127.47;;;39.97;;
58338;SDS011;48278;52.704;6.536;2022-09-12T06:18:48;127.25;;;39.40;;
58338;SDS011;48278;52.704;6.536;2022-09-12T06:21:19;127.20;;;39.03;;
58338;SDS011;48278;52.704;6.536;2022-09-12T06:26:12;129.27;;;39.88;;
58338;SDS011;48278;52.704;6.536;2022-09-12T06:28:39;131.88;;;39.13;;
58338;SDS011;48278;52.704;6.536;2022-09-12T06:31:06;120.78;;;38.08;;
58338;SDS011;48278;52.704;6.536;2022-09-12T06:33:38;124.15;;;39.25;;
58338;SDS011;48278;52.704;6.536;2022-09-12T06:38:32;122.60;;;40.03;;
58338;SDS011;48278;52.704;6.536;2022-09-12T06:40:58;130.55;;;40.08;;
58338;SDS011;48278;52.704;6.536;2022-09-12T06:43:25;127.18;;;40.10;;
58338;SDS011;48278;52.704;6.536;2022-09-12T06:45:52;122.53;;;38.95;;
58338;SDS011;48278;52.704;6.536;2022-09-12T06:48:18;120.60;;;39.28;;
58338;SDS011;48278;52.704;6.536;2022-09-12T06:50:53;126.45;;;38.35;;
58338;SDS011;48278;52.704;6.536;2022-09-12T06:53:27;115.50;;;39.10;;
58338;SDS011;48278;52.704;6.536;2022-09-12T06:55:57;121.15;;;40.15;;
58338;SDS011;48278;52.704;6.536;2022-09-12T06:58:25;122.18;;;38.83;;
58338;SDS011;48278;52.704;6.536;2022-09-12T07:00:51;116.78;;;38.88;;
58338;SDS011;48278;52.704;6.536;2022-09-12T07:03:17;115.35;;;38.53;;
58338;SDS011;48278;52.704;6.536;2022-09-12T07:05:46;123.40;;;39.60;;
58338;SDS011;48278;52.704;6.536;2022-09-12T07:08:12;118.93;;;39.17;;
58338;SDS011;48278;52.704;6.536;2022-09-12T07:10:37;109.00;;;37.20;;
58338;SDS011;48278;52.704;6.536;2022-09-12T07:13:03;111.20;;;37.50;;
58338;SDS011;48278;52.704;6.536;2022-09-12T07:15:29;122.63;;;39.83;;
58338;SDS011;48278;52.704;6.536;2022-09-12T07:17:55;113.03;;;37.00;;
58338;SDS011;48278;52.704;6.536;2022-09-12T07:20:20;106.03;;;37.40;;
58338;SDS011;48278;52.704;6.536;2022-09-12T07:22:47;120.07;;;37.88;;
58338;SDS011;48278;52.704;6.536;2022-09-12T07:25:16;117.10;;;38.35;;
58338;SDS011;48278;52.704;6.536;2022-09-12T07:27:42;103.45;;;35.47;;
58338;SDS011;48278;52.704;6.536;2022-09-12T07:30:07;110.55;;;35.63;;
58338;SDS011;48278;52.704;6.536;2022-09-12T07:32:33;107.38;;;37.13;;
58338;SDS011;48278;52.704;6.536;2022-09-12T07:34:59;105.43;;;36.53;;
58338;SDS011;48278;52.704;6.536;2022-09-12T07:37:32;106.15;;;35.58;;
58338;SDS011;48278;52.704;6.536;2022-09-12T07:39:57;114.25;;;36.47;;
58338;SDS011;48278;52.704;6.536;2022-09-12T07:42:23;116.22;;;36.75;;
58338;SDS011;48278;52.704;6.536;2022-09-12T07:44:49;104.10;;;35.88;;
58338;SDS011;48278;52.704;6.536;2022-09-12T07:47:16;109.07;;;36.45;;
58338;SDS011;48278;52.704;6.536;2022-09-12T07:49:42;113.20;;;36.75;;
58338;SDS011;48278;52.704;6.536;2022-09-12T07:52:08;109.50;;;36.88;;
58338;SDS011;48278;52.704;6.536;2022-09-12T07:54:34;106.85;;;36.95;;
58338;SDS011;48278;52.704;6.536;2022-09-12T07:56:59;106.70;;;36.42;;
58338;SDS011;48278;52.704;6.536;2022-09-12T07:59:25;109.20;;;37.42;;
58338;SDS011;48278;52.704;6.536;2022-09-12T08:01:52;110.05;;;36.97;;
58338;SDS011;48278;52.704;6.536;2022-09-12T08:04:18;106.50;;;37.97;;
58338;SDS011;48278;52.704;6.536;2022-09-12T08:09:10;115.70;;;38.40;;
58338;SDS011;48278;52.704;6.536;2022-09-12T08:11:37;116.35;;;37.97;;
58338;SDS011;48278;52.704;6.536;2022-09-12T08:14:02;117.40;;;39.75;;
58338;SDS011;48278;52.704;6.536;2022-09-12T08:16:30;107.57;;;37.00;;
58338;SDS011;48278;52.704;6.536;2022-09-12T08:18:57;111.85;;;37.53;;
58338;SDS011;48278;52.704;6.536;2022-09-12T08:21:25;114.93;;;38.90;;
58338;SDS011;48278;52.704;6.536;2022-09-12T08:23:54;109.15;;;38.08;;
58338;SDS011;48278;52.704;6.536;2022-09-12T08:26:21;118.43;;;40.78;;
58338;SDS011;48278;52.704;6.536;2022-09-12T08:28:48;127.55;;;40.15;;
58338;SDS011;48278;52.704;6.536;2022-09-12T08:33:41;110.45;;;37.70;;
58338;SDS011;48278;52.704;6.536;2022-09-12T08:36:17;121.68;;;38.17;;
58338;SDS011;48278;52.704;6.536;2022-09-12T08:38:46;123.90;;;41.05;;
58338;SDS011;48278;52.704;6.536;2022-09-12T08:49:34;126.75;;;42.90;;
58338;SDS011;48278;52.704;6.536;2022-09-12T08:52:04;116.22;;;40.88;;
58338;SDS011;48278;52.704;6.536;2022-09-12T08:54:36;124.70;;;42.47;;
58338;SDS011;48278;52.704;6.536;2022-09-12T08:57:04;115.72;;;41.50;;
58338;SDS011;48278;52.704;6.536;2022-09-12T08:59:34;112.00;;;38.20;;
58338;SDS011;48278;52.704;6.536;2022-09-12T09:02:04;111.10;;;39.38;;
58338;SDS011;48278;52.704;6.536;2022-09-12T09:04:47;116.65;;;40.70;;
58338;SDS011;48278;52.704;6.536;2022-09-12T09:12:53;104.93;;;37.63;;
58338;SDS011;48278;52.704;6.536;2022-09-12T09:18:39;99.65;;;36.50;;
58338;SDS011;48278;52.704;6.536;2022-09-12T09:21:16;102.75;;;36.58;;
58338;SDS011;48278;52.704;6.536;2022-09-12T09:23:53;98.00;;;35.95;;
58338;SDS011;48278;52.704;6.536;2022-09-12T09:26:38;95.03;;;35.55;;
58338;SDS011;48278;52.704;6.536;2022-09-12T09:31:48;98.13;;;36.13;;
58338;SDS011;48278;52.704;6.536;2022-09-12T09:34:19;100.30;;;33.80;;
58338;SDS011;48278;52.704;6.536;2022-09-12T09:42:35;93.20;;;35.22;;
58338;SDS011;48278;52.704;6.536;2022-09-12T09:45:02;96.90;;;35.08;;
58338;SDS011;48278;52.704;6.536;2022-09-12T09:47:36;90.03;;;34.17;;
58338;SDS011;48278;52.704;6.536;2022-09-12T09:50:02;88.43;;;34.57;;
58338;SDS011;48278;52.704;6.536;2022-09-12T09:52:28;90.60;;;34.15;;
58338;SDS011;48278;52.704;6.536;2022-09-12T09:54:58;95.32;;;34.75;;
58338;SDS011;48278;52.704;6.536;2022-09-12T10:00:18;94.95;;;35.95;;
58338;SDS011;48278;52.704;6.536;2022-09-12T10:10:57;93.53;;;35.88;;
58338;SDS011;48278;52.704;6.536;2022-09-12T10:13:27;95.38;;;38.05;;
58338;SDS011;48278;52.704;6.536;2022-09-12T10:16:21;92.80;;;35.63;;
58338;SDS011;48278;52.704;6.536;2022-09-12T10:18:49;88.90;;;33.95;;
58338;SDS011;48278;52.704;6.536;2022-09-12T10:26:33;83.93;;;32.93;;
58338;SDS011;48278;52.704;6.536;2022-09-12T10:29:04;91.15;;;34.28;;
58338;SDS011;48278;52.704;6.536;2022-09-12T10:31:51;79.50;;;31.08;;
58338;SDS011;48278;52.704;6.536;2022-09-12T10:34:24;78.30;;;31.70;;
58338;SDS011;48278;52.704;6.536;2022-09-12T10:37:06;88.85;;;33.22;;
58338;SDS011;48278;52.704;6.536;2022-09-12T10:39:53;80.43;;;32.55;;
58338;SDS011;48278;52.704;6.536;2022-09-12T10:45:18;69.78;;;29.02;;
58338;SDS011;48278;52.704;6.536;2022-09-12T10:47:47;79.10;;;31.88;;
58338;SDS011;48278;52.704;6.536;2022-09-12T10:50:24;83.70;;;33.53;;
58338;SDS011;48278;52.704;6.536;2022-09-12T10:52:51;76.78;;;32.00;;
58338;SDS011;48278;52.704;6.536;2022-09-12T10:55:23;75.95;;;32.10;;
58338;SDS011;48278;52.704;6.536;2022-09-12T10:58:05;78.95;;;30.30;;
58338;SDS011;48278;52.704;6.536;2022-09-12T11:00:57;77.85;;;31.17;;
58338;SDS011;48278;52.704;6.536;2022-09-12T11:03:45;69.88;;;29.48;;
58338;SDS011;48278;52.704;6.536;2022-09-12T11:06:12;75.35;;;30.58;;
58338;SDS011;48278;52.704;6.536;2022-09-12T11:08:56;75.40;;;30.30;;
58338;SDS011;48278;52.704;6.536;2022-09-12T11:14:27;69.28;;;27.75;;
58338;SDS011;48278;52.704;6.536;2022-09-12T11:20:03;64.97;;;25.45;;
58338;SDS011;48278;52.704;6.536;2022-09-12T11:25:11;67.22;;;26.20;;
58338;SDS011;48278;52.704;6.536;2022-09-12T11:30:29;65.53;;;27.00;;
58338;SDS011;48278;52.704;6.536;2022-09-12T11:33:23;64.68;;;25.35;;
58338;SDS011;48278;52.704;6.536;2022-09-12T11:35:54;57.40;;;23.60;;
58338;SDS011;48278;52.704;6.536;2022-09-12T11:41:09;55.05;;;23.30;;
58338;SDS011;48278;52.704;6.536;2022-09-12T11:43:37;49.05;;;21.75;;
58338;SDS011;48278;52.704;6.536;2022-09-12T11:51:23;55.00;;;23.63;;
58338;SDS011;48278;52.704;6.536;2022-09-12T11:54:38;50.08;;;21.02;;
58338;SDS011;48278;52.704;6.536;2022-09-12T11:56:52;44.38;;;19.55;;
58338;SDS011;48278;52.704;6.536;2022-09-12T12:02:12;42.97;;;18.10;;
58338;SDS011;48278;52.704;6.536;2022-09-12T12:04:54;34.53;;;15.73;;
58338;SDS011;48278;52.704;6.536;2022-09-12T12:07:54;29.65;;;12.82;;
58338;SDS011;48278;52.704;6.536;2022-09-12T12:12:57;26.80;;;12.27;;
58338;SDS011;48278;52.704;6.536;2022-09-12T12:15:25;28.20;;;12.48;;
58338;SDS011;48278;52.704;6.536;2022-09-12T12:18:14;21.80;;;10.85;;
58338;SDS011;48278;52.704;6.536;2022-09-12T12:20:42;24.65;;;11.52;;
58338;SDS011;48278;52.704;6.536;2022-09-12T12:29:46;26.92;;;12.40;;
58338;SDS011;48278;52.704;6.536;2022-09-12T12:34:41;30.63;;;13.15;;
58338;SDS011;48278;52.704;6.536;2022-09-12T12:44:56;22.27;;;9.77;;
58338;SDS011;48278;52.704;6.536;2022-09-12T12:50:33;25.08;;;11.20;;
58338;SDS011;48278;52.704;6.536;2022-09-12T12:52:47;30.15;;;12.25;;
58338;SDS011;48278;52.704;6.536;2022-09-12T12:55:23;26.88;;;12.50;;
58338;SDS011;48278;52.704;6.536;2022-09-12T12:58:00;26.55;;;11.75;;
58338;SDS011;48278;52.704;6.536;2022-09-12T13:00:34;24.75;;;10.55;;
58338;SDS011;48278;52.704;6.536;2022-09-12T13:05:44;21.50;;;10.13;;
58338;SDS011;48278;52.704;6.536;2022-09-12T13:10:47;20.77;;;10.80;;
58338;SDS011;48278;52.704;6.536;2022-09-12T13:13:25;27.77;;;11.45;;
58338;SDS011;48278;52.704;6.536;2022-09-12T13:15:56;19.67;;;9.20;;
58338;SDS011;48278;52.704;6.536;2022-09-12T13:18:31;23.58;;;9.95;;
58338;SDS011;48278;52.704;6.536;2022-09-12T13:23:38;20.77;;;9.45;;
58338;SDS011;48278;52.704;6.536;2022-09-12T13:26:23;21.88;;;10.23;;
58338;SDS011;48278;52.704;6.536;2022-09-12T13:29:14;20.70;;;10.20;;
58338;SDS011;48278;52.704;6.536;2022-09-12T13:31:42;21.33;;;10.02;;
58338;SDS011;48278;52.704;6.536;2022-09-12T13:34:10;21.23;;;8.85;;
58338;SDS011;48278;52.704;6.536;2022-09-12T13:39:45;15.65;;;8.43;;
58338;SDS011;48278;52.704;6.536;2022-09-12T13:44:49;14.57;;;7.00;;
58338;SDS011;48278;52.704;6.536;2022-09-12T13:47:39;18.92;;;8.80;;
58338;SDS011;48278;52.704;6.536;2022-09-12T13:50:14;15.93;;;7.82;;
58338;SDS011;48278;52.704;6.536;2022-09-12T13:52:44;16.10;;;7.70;;
58338;SDS011;48278;52.704;6.536;2022-09-12T13:55:47;14.73;;;7.70;;
58338;SDS011;48278;52.704;6.536;2022-09-12T13:58:29;13.63;;;6.82;;
58338;SDS011;48278;52.704;6.536;2022-09-12T14:01:12;14.75;;;7.05;;
58338;SDS011;48278;52.704;6.536;2022-09-12T14:03:47;12.10;;;5.60;;
58338;SDS011;48278;52.704;6.536;2022-09-12T14:06:35;10.98;;;5.05;;
58338;SDS011;48278;52.704;6.536;2022-09-12T14:09:24;15.35;;;6.13;;
58338;SDS011;48278;52.704;6.536;2022-09-12T14:12:02;12.68;;;6.07;;
58338;SDS011;48278;52.704;6.536;2022-09-12T14:14:30;16.00;;;6.72;;
58338;SDS011;48278;52.704;6.536;2022-09-12T14:17:00;12.30;;;6.45;;
58338;SDS011;48278;52.704;6.536;2022-09-12T14:19:39;11.52;;;6.57;;
58338;SDS011;48278;52.704;6.536;2022-09-12T14:22:07;10.85;;;5.57;;
58338;SDS011;48278;52.704;6.536;2022-09-12T14:24:36;10.40;;;5.10;;
58338;SDS011;48278;52.704;6.536;2022-09-12T14:27:03;13.48;;;6.20;;
58338;SDS011;48278;52.704;6.536;2022-09-12T14:29:29;11.50;;;5.25;;
58338;SDS011;48278;52.704;6.536;2022-09-12T14:31:59;13.07;;;5.18;;
58338;SDS011;48278;52.704;6.536;2022-09-12T14:34:27;9.20;;;5.15;;
58338;SDS011;48278;52.704;6.536;2022-09-12T14:36:54;11.93;;;5.50;;
58338;SDS011;48278;52.704;6.536;2022-09-12T14:39:32;13.60;;;5.47;;
58338;SDS011;48278;52.704;6.536;2022-09-12T14:44:58;11.77;;;5.13;;
58338;SDS011;48278;52.704;6.536;2022-09-12T14:47:27;10.53;;;5.30;;
58338;SDS011;48278;52.704;6.536;2022-09-12T14:50:00;10.00;;;5.13;;
58338;SDS011;48278;52.704;6.536;2022-09-12T14:52:29;17.48;;;5.55;;
58338;SDS011;48278;52.704;6.536;2022-09-12T14:57:33;9.98;;;5.45;;
58338;SDS011;48278;52.704;6.536;2022-09-12T15:02:35;11.70;;;5.38;;
58338;SDS011;48278;52.704;6.536;2022-09-12T15:07:39;10.75;;;5.68;;
58338;SDS011;48278;52.704;6.536;2022-09-12T15:10:16;11.57;;;6.05;;
58338;SDS011;48278;52.704;6.536;2022-09-12T15:12:50;11.13;;;5.90;;
58338;SDS011;48278;52.704;6.536;2022-09-12T15:15:33;12.73;;;5.80;;
58338;SDS011;48278;52.704;6.536;2022-09-12T15:18:00;13.48;;;6.55;;
58338;SDS011;48278;52.704;6.536;2022-09-12T15:20:26;11.93;;;6.25;;
58338;SDS011;48278;52.704;6.536;2022-09-12T15:22:52;11.95;;;5.90;;
58338;SDS011;48278;52.704;6.536;2022-09-12T15:25:20;13.30;;;6.03;;
58338;SDS011;48278;52.704;6.536;2022-09-12T15:27:46;12.97;;;5.27;;
58338;SDS011;48278;52.704;6.536;2022-09-12T15:30:12;11.80;;;5.80;;
58338;SDS011;48278;52.704;6.536;2022-09-12T15:32:41;12.18;;;5.88;;
58338;SDS011;48278;52.704;6.536;2022-09-12T15:37:41;11.35;;;5.90;;
58338;SDS011;48278;52.704;6.536;2022-09-12T15:40:07;11.63;;;5.97;;
58338;SDS011;48278;52.704;6.536;2022-09-12T15:42:34;13.55;;;6.38;;
58338;SDS011;48278;52.704;6.536;2022-09-12T15:44:59;13.23;;;5.90;;
58338;SDS011;48278;52.704;6.536;2022-09-12T15:47:25;12.33;;;5.93;;
58338;SDS011;48278;52.704;6.536;2022-09-12T15:49:51;10.63;;;5.80;;
58338;SDS011;48278;52.704;6.536;2022-09-12T15:52:16;9.77;;;5.63;;
58338;SDS011;48278;52.704;6.536;2022-09-12T15:54:42;10.43;;;6.07;;
58338;SDS011;48278;52.704;6.536;2022-09-12T15:57:08;13.70;;;6.67;;
58338;SDS011;48278;52.704;6.536;2022-09-12T15:59:34;13.47;;;6.40;;
58338;SDS011;48278;52.704;6.536;2022-09-12T16:02:00;14.57;;;6.55;;
58338;SDS011;48278;52.704;6.536;2022-09-12T16:04:27;15.60;;;6.47;;
58338;SDS011;48278;52.704;6.536;2022-09-12T16:06:54;11.18;;;6.38;;
58338;SDS011;48278;52.704;6.536;2022-09-12T16:11:46;12.65;;;5.20;;
58338;SDS011;48278;52.704;6.536;2022-09-12T16:14:13;10.53;;;5.50;;
58338;SDS011;48278;52.704;6.536;2022-09-12T16:16:41;10.45;;;5.40;;
58338;SDS011;48278;52.704;6.536;2022-09-12T16:19:07;12.27;;;4.95;;
58338;SDS011;48278;52.704;6.536;2022-09-12T16:21:37;8.68;;;5.28;;
58338;SDS011;48278;52.704;6.536;2022-09-12T16:24:03;17.58;;;5.43;;
58338;SDS011;48278;52.704;6.536;2022-09-12T16:26:29;14.15;;;5.47;;
58338;SDS011;48278;52.704;6.536;2022-09-12T16:28:58;12.20;;;5.25;;
58338;SDS011;48278;52.704;6.536;2022-09-12T16:31:24;10.52;;;5.13;;
58338;SDS011;48278;52.704;6.536;2022-09-12T16:33:51;13.65;;;5.80;;
58338;SDS011;48278;52.704;6.536;2022-09-12T16:36:18;9.38;;;5.28;;
58338;SDS011;48278;52.704;6.536;2022-09-12T16:41:11;12.57;;;7.95;;
58338;SDS011;48278;52.704;6.536;2022-09-12T16:43:41;11.23;;;6.80;;
58338;SDS011;48278;52.704;6.536;2022-09-12T16:46:08;11.55;;;6.70;;
58338;SDS011;48278;52.704;6.536;2022-09-12T16:48:36;12.18;;;6.45;;
58338;SDS011;48278;52.704;6.536;2022-09-12T16:51:07;13.02;;;6.82;;
58338;SDS011;48278;52.704;6.536;2022-09-12T16:53:34;11.02;;;6.45;;
58338;SDS011;48278;52.704;6.536;2022-09-12T16:56:01;14.55;;;7.30;;
58338;SDS011;48278;52.704;6.536;2022-09-12T16:58:30;12.10;;;6.90;;
58338;SDS011;48278;52.704;6.536;2022-09-12T17:03:27;11.93;;;6.43;;
58338;SDS011;48278;52.704;6.536;2022-09-12T17:06:00;11.88;;;6.25;;
58338;SDS011;48278;52.704;6.536;2022-09-12T17:08:32;12.27;;;6.18;;
58338;SDS011;48278;52.704;6.536;2022-09-12T17:11:00;12.82;;;6.50;;
58338;SDS011;48278;52.704;6.536;2022-09-12T17:13:27;13.50;;;6.20;;
58338;SDS011;48278;52.704;6.536;2022-09-12T17:15:54;11.57;;;6.85;;
58338;SDS011;48278;52.704;6.536;2022-09-12T17:18:20;11.53;;;6.53;;
58338;SDS011;48278;52.704;6.536;2022-09-12T17:20:45;14.33;;;7.20;;
58338;SDS011;48278;52.704;6.536;2022-09-12T17:23:11;13.33;;;7.20;;
58338;SDS011;48278;52.704;6.536;2022-09-12T17:25:37;14.30;;;6.63;;
58338;SDS011;48278;52.704;6.536;2022-09-12T17:28:02;18.93;;;7.13;;
58338;SDS011;48278;52.704;6.536;2022-09-12T17:30:34;13.73;;;7.20;;
58338;SDS011;48278;52.704;6.536;2022-09-12T17:33:00;15.07;;;7.63;;
58338;SDS011;48278;52.704;6.536;2022-09-12T17:35:27;14.20;;;7.50;;